sensor_id;sensor_type;location;lat;lon;timestamp;P1;durP1;ratioP1;P2;durP2;ratioP2
7693;SDS011;3889;48.162;11.510;2022-12-17T00:00:13;31.40;;;27.27;;
7693;SDS011;3889;48.162;11.510;2022-12-17T00:02:59;30.50;;;27.30;;
7693;SDS011;3889;48.162;11.510;2022-12-17T00:05:44;29.60;;;26.50;;
7693;SDS011;3889;48.162;11.510;2022-12-17T00:08:30;29.95;;;26.73;;
7693;SDS011;3889;48.162;11.510;2022-12-17T00:11:27;30.23;;;27.03;;
7693;SDS011;3889;48.162;11.510;2022-12-17T00:14:12;30.92;;;27.63;;
7693;SDS011;3889;48.162;11.510;2022-12-17T00:16:59;30.85;;;27.50;;
7693;SDS011;3889;48.162;11.510;2022-12-17T00:19:44;30.10;;;26.83;;
7693;SDS011;3889;48.162;11.510;2022-12-17T00:22:29;30.13;;;27.00;;
7693;SDS011;3889;48.162;11.510;2022-12-17T00:25:15;30.23;;;27.13;;
7693;SDS011;3889;48.162;11.510;2022-12-17T00:28:00;31.85;;;28.45;;
7693;SDS011;3889;48.162;11.510;2022-12-17T00:30:57;29.67;;;26.70;;
7693;SDS011;3889;48.162;11.510;2022-12-17T00:33:44;29.40;;;26.42;;
7693;SDS011;3889;48.162;11.510;2022-12-17T00:36:30;31.67;;;27.50;;
7693;SDS011;3889;48.162;11.510;2022-12-17T00:39:15;29.95;;;26.90;;
7693;SDS011;3889;48.162;11.510;2022-12-17T00:42:00;28.85;;;25.95;;
7693;SDS011;3889;48.162;11.510;2022-12-17T00:45:00;28.55;;;25.55;;
7693;SDS011;3889;48.162;11.510;2022-12-17T00:47:46;29.13;;;26.02;;
7693;SDS011;3889;48.162;11.510;2022-12-17T00:50:33;28.90;;;25.98;;
7693;SDS011;3889;48.162;11.510;2022-12-17T00:53:21;30.17;;;27.08;;
7693;SDS011;3889;48.162;11.510;2022-12-17T00:56:07;29.17;;;26.00;;
7693;SDS011;3889;48.162;11.510;2022-12-17T00:58:52;28.90;;;25.80;;
7693;SDS011;3889;48.162;11.510;2022-12-17T01:01:38;30.20;;;27.02;;
7693;SDS011;3889;48.162;11.510;2022-12-17T01:04:23;28.92;;;25.92;;
7693;SDS011;3889;48.162;11.510;2022-12-17T01:07:10;27.83;;;25.00;;
7693;SDS011;3889;48.162;11.510;2022-12-17T01:09:55;29.83;;;26.65;;
7693;SDS011;3889;48.162;11.510;2022-12-17T01:12:41;29.48;;;26.48;;
7693;SDS011;3889;48.162;11.510;2022-12-17T01:15:26;29.80;;;26.70;;
7693;SDS011;3889;48.162;11.510;2022-12-17T01:18:15;30.23;;;27.10;;
7693;SDS011;3889;48.162;11.510;2022-12-17T01:21:01;28.58;;;25.63;;
7693;SDS011;3889;48.162;11.510;2022-12-17T01:23:48;30.20;;;27.02;;
7693;SDS011;3889;48.162;11.510;2022-12-17T01:26:33;29.87;;;26.67;;
7693;SDS011;3889;48.162;11.510;2022-12-17T01:29:21;29.15;;;26.13;;
7693;SDS011;3889;48.162;11.510;2022-12-17T01:32:06;29.35;;;26.35;;
7693;SDS011;3889;48.162;11.510;2022-12-17T01:34:52;28.95;;;26.00;;
7693;SDS011;3889;48.162;11.510;2022-12-17T01:37:37;30.33;;;27.13;;
7693;SDS011;3889;48.162;11.510;2022-12-17T01:40:24;28.73;;;25.83;;
7693;SDS011;3889;48.162;11.510;2022-12-17T01:43:10;29.08;;;26.08;;
7693;SDS011;3889;48.162;11.510;2022-12-17T01:45:56;28.60;;;25.75;;
7693;SDS011;3889;48.162;11.510;2022-12-17T01:48:43;29.85;;;26.85;;
7693;SDS011;3889;48.162;11.510;2022-12-17T01:51:30;29.85;;;26.75;;
7693;SDS011;3889;48.162;11.510;2022-12-17T01:54:17;29.80;;;26.80;;
7693;SDS011;3889;48.162;11.510;2022-12-17T01:57:04;28.67;;;25.85;;
7693;SDS011;3889;48.162;11.510;2022-12-17T01:59:53;29.38;;;26.38;;
7693;SDS011;3889;48.162;11.510;2022-12-17T02:02:42;29.48;;;26.58;;
7693;SDS011;3889;48.162;11.510;2022-12-17T02:05:29;30.02;;;26.90;;
7693;SDS011;3889;48.162;11.510;2022-12-17T02:08:21;29.77;;;26.70;;
7693;SDS011;3889;48.162;11.510;2022-12-17T02:11:12;29.40;;;26.33;;
7693;SDS011;3889;48.162;11.510;2022-12-17T02:14:24;30.08;;;26.98;;
7693;SDS011;3889;48.162;11.510;2022-12-17T02:17:17;28.80;;;26.00;;
7693;SDS011;3889;48.162;11.510;2022-12-17T02:20:10;28.83;;;25.92;;
7693;SDS011;3889;48.162;11.510;2022-12-17T02:23:05;30.05;;;26.95;;
7693;SDS011;3889;48.162;11.510;2022-12-17T02:26:01;29.40;;;26.48;;
7693;SDS011;3889;48.162;11.510;2022-12-17T02:28:51;29.50;;;26.50;;
7693;SDS011;3889;48.162;11.510;2022-12-17T02:31:40;31.00;;;27.77;;
7693;SDS011;3889;48.162;11.510;2022-12-17T02:34:28;30.37;;;27.27;;
7693;SDS011;3889;48.162;11.510;2022-12-17T02:37:13;29.73;;;26.73;;
7693;SDS011;3889;48.162;11.510;2022-12-17T02:39:59;30.15;;;27.05;;
7693;SDS011;3889;48.162;11.510;2022-12-17T02:42:44;30.30;;;27.20;;
7693;SDS011;3889;48.162;11.510;2022-12-17T02:45:33;30.77;;;27.50;;
7693;SDS011;3889;48.162;11.510;2022-12-17T02:48:19;31.40;;;28.20;;
7693;SDS011;3889;48.162;11.510;2022-12-17T02:51:04;29.10;;;26.08;;
7693;SDS011;3889;48.162;11.510;2022-12-17T02:53:50;29.70;;;26.70;;
7693;SDS011;3889;48.162;11.510;2022-12-17T02:56:37;29.42;;;26.35;;
7693;SDS011;3889;48.162;11.510;2022-12-17T02:59:22;29.48;;;26.33;;
7693;SDS011;3889;48.162;11.510;2022-12-17T03:02:09;29.95;;;26.90;;
7693;SDS011;3889;48.162;11.510;2022-12-17T03:04:54;29.42;;;26.38;;
7693;SDS011;3889;48.162;11.510;2022-12-17T03:07:59;29.35;;;26.23;;
7693;SDS011;3889;48.162;11.510;2022-12-17T03:10:45;30.20;;;27.10;;
7693;SDS011;3889;48.162;11.510;2022-12-17T03:13:27;30.90;;;27.63;;
7693;SDS011;3889;48.162;11.510;2022-12-17T03:16:14;30.67;;;27.45;;
7693;SDS011;3889;48.162;11.510;2022-12-17T03:19:04;29.33;;;26.33;;
7693;SDS011;3889;48.162;11.510;2022-12-17T03:21:49;30.43;;;27.33;;
7693;SDS011;3889;48.162;11.510;2022-12-17T03:24:35;30.75;;;27.50;;
7693;SDS011;3889;48.162;11.510;2022-12-17T03:27:22;29.23;;;26.33;;
7693;SDS011;3889;48.162;11.510;2022-12-17T03:30:07;29.83;;;26.80;;
7693;SDS011;3889;48.162;11.510;2022-12-17T03:32:59;30.55;;;27.52;;
7693;SDS011;3889;48.162;11.510;2022-12-17T03:35:46;30.88;;;27.77;;
7693;SDS011;3889;48.162;11.510;2022-12-17T03:38:31;30.75;;;27.58;;
7693;SDS011;3889;48.162;11.510;2022-12-17T03:41:17;31.25;;;28.05;;
7693;SDS011;3889;48.162;11.510;2022-12-17T03:44:02;31.13;;;27.92;;
7693;SDS011;3889;48.162;11.510;2022-12-17T03:46:48;32.03;;;28.77;;
7693;SDS011;3889;48.162;11.510;2022-12-17T03:49:33;33.65;;;30.05;;
7693;SDS011;3889;48.162;11.510;2022-12-17T03:52:20;32.35;;;29.08;;
7693;SDS011;3889;48.162;11.510;2022-12-17T03:55:06;32.85;;;29.40;;
7693;SDS011;3889;48.162;11.510;2022-12-17T03:57:51;32.77;;;29.47;;
7693;SDS011;3889;48.162;11.510;2022-12-17T04:00:37;33.28;;;29.77;;
7693;SDS011;3889;48.162;11.510;2022-12-17T04:03:22;33.22;;;29.80;;
7693;SDS011;3889;48.162;11.510;2022-12-17T04:06:08;31.92;;;28.67;;
7693;SDS011;3889;48.162;11.510;2022-12-17T04:08:54;32.20;;;28.97;;
7693;SDS011;3889;48.162;11.510;2022-12-17T04:11:40;31.00;;;27.77;;
7693;SDS011;3889;48.162;11.510;2022-12-17T04:14:25;30.65;;;27.52;;
7693;SDS011;3889;48.162;11.510;2022-12-17T04:17:11;31.30;;;28.10;;
7693;SDS011;3889;48.162;11.510;2022-12-17T04:19:56;29.50;;;26.40;;
7693;SDS011;3889;48.162;11.510;2022-12-17T04:22:41;30.17;;;27.17;;
7693;SDS011;3889;48.162;11.510;2022-12-17T04:25:28;29.77;;;26.70;;
7693;SDS011;3889;48.162;11.510;2022-12-17T04:28:13;29.00;;;26.00;;
7693;SDS011;3889;48.162;11.510;2022-12-17T04:30:59;29.65;;;26.65;;
7693;SDS011;3889;48.162;11.510;2022-12-17T04:33:45;29.77;;;26.70;;
7693;SDS011;3889;48.162;11.510;2022-12-17T04:36:30;28.67;;;25.80;;
7693;SDS011;3889;48.162;11.510;2022-12-17T04:39:15;30.42;;;27.08;;
7693;SDS011;3889;48.162;11.510;2022-12-17T04:42:02;30.85;;;27.63;;
7693;SDS011;3889;48.162;11.510;2022-12-17T04:44:48;31.87;;;28.63;;
7693;SDS011;3889;48.162;11.510;2022-12-17T04:47:33;31.55;;;28.15;;
7693;SDS011;3889;48.162;11.510;2022-12-17T04:50:18;32.20;;;28.80;;
7693;SDS011;3889;48.162;11.510;2022-12-17T04:53:04;32.38;;;29.02;;
7693;SDS011;3889;48.162;11.510;2022-12-17T04:55:50;33.30;;;29.90;;
7693;SDS011;3889;48.162;11.510;2022-12-17T04:58:45;33.45;;;30.05;;
7693;SDS011;3889;48.162;11.510;2022-12-17T05:01:31;33.83;;;30.33;;
7693;SDS011;3889;48.162;11.510;2022-12-17T05:04:16;35.83;;;32.03;;
7693;SDS011;3889;48.162;11.510;2022-12-17T05:07:01;33.92;;;30.33;;
7693;SDS011;3889;48.162;11.510;2022-12-17T05:09:47;34.97;;;31.23;;
7693;SDS011;3889;48.162;11.510;2022-12-17T05:12:32;35.83;;;32.05;;
7693;SDS011;3889;48.162;11.510;2022-12-17T05:15:20;33.88;;;30.35;;
7693;SDS011;3889;48.162;11.510;2022-12-17T05:18:06;34.05;;;30.50;;
7693;SDS011;3889;48.162;11.510;2022-12-17T05:20:52;33.80;;;30.20;;
7693;SDS011;3889;48.162;11.510;2022-12-17T05:23:38;33.42;;;29.80;;
7693;SDS011;3889;48.162;11.510;2022-12-17T05:26:24;33.15;;;29.67;;
7693;SDS011;3889;48.162;11.510;2022-12-17T05:29:10;33.08;;;29.58;;
7693;SDS011;3889;48.162;11.510;2022-12-17T05:31:57;32.58;;;29.17;;
7693;SDS011;3889;48.162;11.510;2022-12-17T05:34:43;32.40;;;29.02;;
7693;SDS011;3889;48.162;11.510;2022-12-17T05:37:28;32.28;;;28.98;;
7693;SDS011;3889;48.162;11.510;2022-12-17T05:40:14;32.60;;;29.27;;
7693;SDS011;3889;48.162;11.510;2022-12-17T05:43:00;32.63;;;29.10;;
7693;SDS011;3889;48.162;11.510;2022-12-17T05:45:47;31.70;;;28.40;;
7693;SDS011;3889;48.162;11.510;2022-12-17T05:48:34;32.28;;;29.00;;
7693;SDS011;3889;48.162;11.510;2022-12-17T05:51:20;33.38;;;29.95;;
7693;SDS011;3889;48.162;11.510;2022-12-17T05:54:20;33.28;;;29.75;;
7693;SDS011;3889;48.162;11.510;2022-12-17T05:57:05;32.40;;;29.05;;
7693;SDS011;3889;48.162;11.510;2022-12-17T05:59:56;30.23;;;27.15;;
7693;SDS011;3889;48.162;11.510;2022-12-17T06:02:41;31.30;;;28.00;;
7693;SDS011;3889;48.162;11.510;2022-12-17T06:05:28;33.23;;;29.83;;
7693;SDS011;3889;48.162;11.510;2022-12-17T06:08:14;33.22;;;29.83;;
7693;SDS011;3889;48.162;11.510;2022-12-17T06:10:59;33.20;;;29.80;;
7693;SDS011;3889;48.162;11.510;2022-12-17T06:13:45;33.92;;;30.33;;
7693;SDS011;3889;48.162;11.510;2022-12-17T06:16:31;34.15;;;30.52;;
7693;SDS011;3889;48.162;11.510;2022-12-17T06:19:16;34.35;;;30.75;;
7693;SDS011;3889;48.162;11.510;2022-12-17T06:22:03;32.88;;;29.58;;
7693;SDS011;3889;48.162;11.510;2022-12-17T06:24:48;33.05;;;29.67;;
7693;SDS011;3889;48.162;11.510;2022-12-17T06:27:33;33.65;;;30.05;;
7693;SDS011;3889;48.162;11.510;2022-12-17T06:30:19;34.20;;;30.52;;
7693;SDS011;3889;48.162;11.510;2022-12-17T06:33:05;32.58;;;29.20;;
7693;SDS011;3889;48.162;11.510;2022-12-17T06:35:52;31.83;;;28.52;;
7693;SDS011;3889;48.162;11.510;2022-12-17T06:38:48;36.13;;;28.92;;
7693;SDS011;3889;48.162;11.510;2022-12-17T06:41:34;32.58;;;29.08;;
7693;SDS011;3889;48.162;11.510;2022-12-17T06:44:29;32.15;;;28.95;;
7693;SDS011;3889;48.162;11.510;2022-12-17T06:47:14;32.30;;;28.73;;
7693;SDS011;3889;48.162;11.510;2022-12-17T06:50:00;32.97;;;29.48;;
7693;SDS011;3889;48.162;11.510;2022-12-17T06:52:45;32.08;;;28.77;;
7693;SDS011;3889;48.162;11.510;2022-12-17T06:55:32;31.92;;;28.60;;
7693;SDS011;3889;48.162;11.510;2022-12-17T06:58:17;31.73;;;28.33;;
7693;SDS011;3889;48.162;11.510;2022-12-17T07:01:02;31.40;;;27.60;;
7693;SDS011;3889;48.162;11.510;2022-12-17T07:03:50;31.27;;;27.98;;
7693;SDS011;3889;48.162;11.510;2022-12-17T07:06:35;31.83;;;28.53;;
7693;SDS011;3889;48.162;11.510;2022-12-17T07:09:20;31.02;;;27.63;;
7693;SDS011;3889;48.162;11.510;2022-12-17T07:12:07;31.83;;;28.45;;
7693;SDS011;3889;48.162;11.510;2022-12-17T07:14:53;31.30;;;28.00;;
7693;SDS011;3889;48.162;11.510;2022-12-17T07:17:38;30.83;;;27.52;;
7693;SDS011;3889;48.162;11.510;2022-12-17T07:20:23;30.85;;;27.50;;
7693;SDS011;3889;48.162;11.510;2022-12-17T07:23:09;30.27;;;27.17;;
7693;SDS011;3889;48.162;11.510;2022-12-17T07:25:55;31.17;;;27.97;;
7693;SDS011;3889;48.162;11.510;2022-12-17T07:28:42;30.23;;;27.08;;
7693;SDS011;3889;48.162;11.510;2022-12-17T07:31:27;31.05;;;27.85;;
7693;SDS011;3889;48.162;11.510;2022-12-17T07:34:13;30.67;;;27.52;;
7693;SDS011;3889;48.162;11.510;2022-12-17T07:36:55;32.00;;;28.50;;
7693;SDS011;3889;48.162;11.510;2022-12-17T07:39:45;31.05;;;27.85;;
7693;SDS011;3889;48.162;11.510;2022-12-17T07:42:31;31.17;;;27.83;;
7693;SDS011;3889;48.162;11.510;2022-12-17T07:45:20;31.48;;;28.23;;
7693;SDS011;3889;48.162;11.510;2022-12-17T07:48:05;31.38;;;28.08;;
7693;SDS011;3889;48.162;11.510;2022-12-17T07:50:51;29.05;;;26.13;;
7693;SDS011;3889;48.162;11.510;2022-12-17T07:53:36;30.15;;;26.77;;
7693;SDS011;3889;48.162;11.510;2022-12-17T07:56:22;33.63;;;27.98;;
7693;SDS011;3889;48.162;11.510;2022-12-17T07:59:07;31.67;;;28.40;;
7693;SDS011;3889;48.162;11.510;2022-12-17T08:01:54;32.08;;;28.58;;
7693;SDS011;3889;48.162;11.510;2022-12-17T08:04:40;30.90;;;27.70;;
7693;SDS011;3889;48.162;11.510;2022-12-17T08:07:25;31.13;;;27.88;;
7693;SDS011;3889;48.162;11.510;2022-12-17T08:10:11;31.90;;;28.50;;
7693;SDS011;3889;48.162;11.510;2022-12-17T08:12:57;31.40;;;28.15;;
7693;SDS011;3889;48.162;11.510;2022-12-17T08:15:44;32.00;;;28.70;;
7693;SDS011;3889;48.162;11.510;2022-12-17T08:18:31;31.52;;;28.15;;
7693;SDS011;3889;48.162;11.510;2022-12-17T08:21:17;31.85;;;28.52;;
7693;SDS011;3889;48.162;11.510;2022-12-17T08:24:03;31.08;;;27.88;;
7693;SDS011;3889;48.162;11.510;2022-12-17T08:26:48;31.38;;;28.13;;
7693;SDS011;3889;48.162;11.510;2022-12-17T08:29:34;32.95;;;28.02;;
7693;SDS011;3889;48.162;11.510;2022-12-17T08:32:19;32.95;;;29.45;;
7693;SDS011;3889;48.162;11.510;2022-12-17T08:35:07;31.13;;;27.85;;
7693;SDS011;3889;48.162;11.510;2022-12-17T08:37:52;32.00;;;28.60;;
7693;SDS011;3889;48.162;11.510;2022-12-17T08:40:38;31.38;;;28.17;;
7693;SDS011;3889;48.162;11.510;2022-12-17T08:43:23;30.92;;;27.63;;
7693;SDS011;3889;48.162;11.510;2022-12-17T08:46:09;30.42;;;27.27;;
7693;SDS011;3889;48.162;11.510;2022-12-17T08:48:54;30.40;;;27.30;;
7693;SDS011;3889;48.162;11.510;2022-12-17T08:51:41;32.58;;;28.13;;
7693;SDS011;3889;48.162;11.510;2022-12-17T08:54:26;30.60;;;27.30;;
7693;SDS011;3889;48.162;11.510;2022-12-17T08:57:12;30.93;;;27.57;;
7693;SDS011;3889;48.162;11.510;2022-12-17T09:00:00;29.77;;;26.58;;
7693;SDS011;3889;48.162;11.510;2022-12-17T09:02:45;30.20;;;27.17;;
7693;SDS011;3889;48.162;11.510;2022-12-17T09:05:31;30.10;;;26.97;;
7693;SDS011;3889;48.162;11.510;2022-12-17T09:08:18;28.80;;;25.80;;
7693;SDS011;3889;48.162;11.510;2022-12-17T09:11:03;30.30;;;27.08;;
7693;SDS011;3889;48.162;11.510;2022-12-17T09:13:49;30.75;;;27.65;;
7693;SDS011;3889;48.162;11.510;2022-12-17T09:16:34;32.22;;;28.17;;
7693;SDS011;3889;48.162;11.510;2022-12-17T09:19:20;30.77;;;27.48;;
7693;SDS011;3889;48.162;11.510;2022-12-17T09:22:05;30.07;;;26.87;;
7693;SDS011;3889;48.162;11.510;2022-12-17T09:24:52;28.60;;;25.60;;
7693;SDS011;3889;48.162;11.510;2022-12-17T09:27:37;28.27;;;25.38;;
7693;SDS011;3889;48.162;11.510;2022-12-17T09:30:23;29.02;;;25.92;;
7693;SDS011;3889;48.162;11.510;2022-12-17T09:33:12;29.35;;;26.25;;
7693;SDS011;3889;48.162;11.510;2022-12-17T09:36:04;28.70;;;25.63;;
7693;SDS011;3889;48.162;11.510;2022-12-17T09:38:51;28.08;;;25.02;;
7693;SDS011;3889;48.162;11.510;2022-12-17T09:41:39;30.38;;;26.55;;
7693;SDS011;3889;48.162;11.510;2022-12-17T09:44:33;29.58;;;26.10;;
7693;SDS011;3889;48.162;11.510;2022-12-17T09:47:24;28.55;;;25.13;;
7693;SDS011;3889;48.162;11.510;2022-12-17T09:50:18;28.17;;;25.17;;
7693;SDS011;3889;48.162;11.510;2022-12-17T09:53:07;30.40;;;26.65;;
7693;SDS011;3889;48.162;11.510;2022-12-17T09:56:03;29.10;;;26.00;;
7693;SDS011;3889;48.162;11.510;2022-12-17T09:58:50;28.57;;;25.47;;
7693;SDS011;3889;48.162;11.510;2022-12-17T10:01:38;29.85;;;26.60;;
7693;SDS011;3889;48.162;11.510;2022-12-17T10:06:58;28.30;;;25.30;;
7693;SDS011;3889;48.162;11.510;2022-12-17T10:09:44;28.35;;;25.35;;
7693;SDS011;3889;48.162;11.510;2022-12-17T10:12:32;29.17;;;25.92;;
7693;SDS011;3889;48.162;11.510;2022-12-17T10:15:19;28.55;;;25.13;;
7693;SDS011;3889;48.162;11.510;2022-12-17T10:18:05;29.25;;;25.55;;
7693;SDS011;3889;48.162;11.510;2022-12-17T10:20:56;27.93;;;24.93;;
7693;SDS011;3889;48.162;11.510;2022-12-17T10:23:43;27.73;;;24.33;;
7693;SDS011;3889;48.162;11.510;2022-12-17T10:26:29;28.27;;;25.20;;
7693;SDS011;3889;48.162;11.510;2022-12-17T10:29:17;28.58;;;25.48;;
7693;SDS011;3889;48.162;11.510;2022-12-17T10:32:18;28.33;;;25.27;;
7693;SDS011;3889;48.162;11.510;2022-12-17T10:35:06;28.65;;;24.80;;
7693;SDS011;3889;48.162;11.510;2022-12-17T10:37:58;29.35;;;26.23;;
7693;SDS011;3889;48.162;11.510;2022-12-17T10:40:44;28.25;;;25.30;;
7693;SDS011;3889;48.162;11.510;2022-12-17T10:43:30;28.50;;;25.40;;
7693;SDS011;3889;48.162;11.510;2022-12-17T10:46:24;28.77;;;25.67;;
7693;SDS011;3889;48.162;11.510;2022-12-17T10:49:13;30.90;;;25.70;;
7693;SDS011;3889;48.162;11.510;2022-12-17T10:52:00;29.00;;;25.70;;
7693;SDS011;3889;48.162;11.510;2022-12-17T10:54:55;29.85;;;26.40;;
7693;SDS011;3889;48.162;11.510;2022-12-17T10:57:43;30.75;;;26.08;;
7693;SDS011;3889;48.162;11.510;2022-12-17T11:00:30;30.43;;;26.40;;
7693;SDS011;3889;48.162;11.510;2022-12-17T11:03:22;28.15;;;25.08;;
7693;SDS011;3889;48.162;11.510;2022-12-17T11:06:22;29.48;;;25.92;;
7693;SDS011;3889;48.162;11.510;2022-12-17T11:09:12;29.20;;;25.83;;
7693;SDS011;3889;48.162;11.510;2022-12-17T11:12:05;30.50;;;26.88;;
7693;SDS011;3889;48.162;11.510;2022-12-17T11:14:57;29.02;;;25.92;;
7693;SDS011;3889;48.162;11.510;2022-12-17T11:17:46;30.30;;;27.03;;
7693;SDS011;3889;48.162;11.510;2022-12-17T11:20:39;30.25;;;26.85;;
7693;SDS011;3889;48.162;11.510;2022-12-17T11:23:31;29.75;;;26.52;;
7693;SDS011;3889;48.162;11.510;2022-12-17T11:26:20;29.83;;;26.63;;
7693;SDS011;3889;48.162;11.510;2022-12-17T11:29:09;30.30;;;27.13;;
7693;SDS011;3889;48.162;11.510;2022-12-17T11:32:01;30.60;;;27.30;;
7693;SDS011;3889;48.162;11.510;2022-12-17T11:35:01;29.75;;;26.65;;
7693;SDS011;3889;48.162;11.510;2022-12-17T11:37:52;33.97;;;30.30;;
7693;SDS011;3889;48.162;11.510;2022-12-17T11:40:44;33.17;;;29.67;;
7693;SDS011;3889;48.162;11.510;2022-12-17T11:43:37;32.63;;;29.08;;
7693;SDS011;3889;48.162;11.510;2022-12-17T11:46:32;32.55;;;29.10;;
7693;SDS011;3889;48.162;11.510;2022-12-17T11:49:26;35.97;;;32.08;;
7693;SDS011;3889;48.162;11.510;2022-12-17T11:52:21;35.72;;;31.85;;
7693;SDS011;3889;48.162;11.510;2022-12-17T11:55:16;34.97;;;31.38;;
7693;SDS011;3889;48.162;11.510;2022-12-17T11:58:11;35.03;;;31.33;;
7693;SDS011;3889;48.162;11.510;2022-12-17T12:01:06;33.53;;;29.92;;
7693;SDS011;3889;48.162;11.510;2022-12-17T12:04:01;33.92;;;30.35;;
7693;SDS011;3889;48.162;11.510;2022-12-17T12:06:59;33.88;;;30.27;;
7693;SDS011;3889;48.162;11.510;2022-12-17T12:09:49;33.22;;;29.65;;
7693;SDS011;3889;48.162;11.510;2022-12-17T12:12:44;32.85;;;29.25;;
7693;SDS011;3889;48.162;11.510;2022-12-17T12:15:44;34.63;;;31.00;;
7693;SDS011;3889;48.162;11.510;2022-12-17T12:18:41;34.30;;;30.77;;
7693;SDS011;3889;48.162;11.510;2022-12-17T12:21:37;35.05;;;31.25;;
7693;SDS011;3889;48.162;11.510;2022-12-17T12:27:44;33.38;;;29.88;;
7693;SDS011;3889;48.162;11.510;2022-12-17T12:30:42;33.53;;;30.05;;
7693;SDS011;3889;48.162;11.510;2022-12-17T12:33:39;35.45;;;31.63;;
7693;SDS011;3889;48.162;11.510;2022-12-17T12:36:30;36.20;;;32.30;;
7693;SDS011;3889;48.162;11.510;2022-12-17T12:39:18;36.30;;;32.40;;
7693;SDS011;3889;48.162;11.510;2022-12-17T12:42:11;37.03;;;33.08;;
7693;SDS011;3889;48.162;11.510;2022-12-17T12:45:03;38.25;;;33.92;;
7693;SDS011;3889;48.162;11.510;2022-12-17T12:48:01;36.35;;;32.55;;
7693;SDS011;3889;48.162;11.510;2022-12-17T12:50:53;36.07;;;32.17;;
7693;SDS011;3889;48.162;11.510;2022-12-17T12:53:42;35.03;;;31.23;;
7693;SDS011;3889;48.162;11.510;2022-12-17T12:56:33;35.38;;;31.65;;
7693;SDS011;3889;48.162;11.510;2022-12-17T12:59:20;34.78;;;31.08;;
7693;SDS011;3889;48.162;11.510;2022-12-17T13:02:13;34.78;;;31.17;;
7693;SDS011;3889;48.162;11.510;2022-12-17T13:05:23;36.40;;;32.45;;
7693;SDS011;3889;48.162;11.510;2022-12-17T13:08:16;35.35;;;31.58;;
7693;SDS011;3889;48.162;11.510;2022-12-17T13:10:47;36.90;;;32.28;;
7693;SDS011;3889;48.162;11.510;2022-12-17T13:13:21;37.80;;;33.75;;
7693;SDS011;3889;48.162;11.510;2022-12-17T13:16:00;40.95;;;36.75;;
7693;SDS011;3889;48.162;11.510;2022-12-17T13:18:31;40.13;;;35.75;;
7693;SDS011;3889;48.162;11.510;2022-12-17T13:21:04;41.33;;;37.03;;
7693;SDS011;3889;48.162;11.510;2022-12-17T13:23:49;43.97;;;39.17;;
7693;SDS011;3889;48.162;11.510;2022-12-17T13:26:19;44.58;;;39.83;;
7693;SDS011;3889;48.162;11.510;2022-12-17T13:28:57;42.78;;;38.42;;
7693;SDS011;3889;48.162;11.510;2022-12-17T13:31:27;43.67;;;39.00;;
7693;SDS011;3889;48.162;11.510;2022-12-17T13:34:00;43.90;;;39.30;;
7693;SDS011;3889;48.162;11.510;2022-12-17T13:36:40;43.60;;;39.03;;
7693;SDS011;3889;48.162;11.510;2022-12-17T13:39:20;43.22;;;38.83;;
7693;SDS011;3889;48.162;11.510;2022-12-17T13:41:58;44.78;;;40.13;;
7693;SDS011;3889;48.162;11.510;2022-12-17T13:44:28;45.42;;;40.75;;
7693;SDS011;3889;48.162;11.510;2022-12-17T13:47:02;43.45;;;39.03;;
7693;SDS011;3889;48.162;11.510;2022-12-17T13:49:30;43.83;;;39.20;;
7693;SDS011;3889;48.162;11.510;2022-12-17T13:52:03;45.25;;;40.38;;
7693;SDS011;3889;48.162;11.510;2022-12-17T13:54:37;44.73;;;40.03;;
7693;SDS011;3889;48.162;11.510;2022-12-17T13:57:06;46.13;;;41.13;;
7693;SDS011;3889;48.162;11.510;2022-12-17T13:59:34;45.10;;;40.33;;
7693;SDS011;3889;48.162;11.510;2022-12-17T14:02:02;43.88;;;39.15;;
7693;SDS011;3889;48.162;11.510;2022-12-17T14:04:30;45.55;;;39.35;;
7693;SDS011;3889;48.162;11.510;2022-12-17T14:06:58;45.47;;;40.57;;
7693;SDS011;3889;48.162;11.510;2022-12-17T14:09:32;46.53;;;41.63;;
7693;SDS011;3889;48.162;11.510;2022-12-17T14:12:02;45.45;;;40.65;;
7693;SDS011;3889;48.162;11.510;2022-12-17T14:14:51;45.35;;;40.67;;
7693;SDS011;3889;48.162;11.510;2022-12-17T14:17:22;45.65;;;40.85;;
7693;SDS011;3889;48.162;11.510;2022-12-17T14:19:55;45.88;;;40.97;;
7693;SDS011;3889;48.162;11.510;2022-12-17T14:22:29;45.97;;;41.17;;
7693;SDS011;3889;48.162;11.510;2022-12-17T14:25:01;46.45;;;41.45;;
7693;SDS011;3889;48.162;11.510;2022-12-17T14:27:32;43.10;;;38.15;;
7693;SDS011;3889;48.162;11.510;2022-12-17T14:30:01;43.50;;;38.80;;
7693;SDS011;3889;48.162;11.510;2022-12-17T14:32:46;43.95;;;39.35;;
7693;SDS011;3889;48.162;11.510;2022-12-17T14:35:24;43.60;;;38.83;;
7693;SDS011;3889;48.162;11.510;2022-12-17T14:37:55;42.85;;;38.25;;
7693;SDS011;3889;48.162;11.510;2022-12-17T14:40:23;42.00;;;37.45;;
7693;SDS011;3889;48.162;11.510;2022-12-17T14:42:52;43.95;;;38.65;;
7693;SDS011;3889;48.162;11.510;2022-12-17T14:45:25;45.33;;;40.42;;
7693;SDS011;3889;48.162;11.510;2022-12-17T14:47:54;44.55;;;39.75;;
7693;SDS011;3889;48.162;11.510;2022-12-17T14:50:26;46.03;;;41.08;;
7693;SDS011;3889;48.162;11.510;2022-12-17T14:52:58;44.80;;;40.00;;
7693;SDS011;3889;48.162;11.510;2022-12-17T14:55:30;45.90;;;40.90;;
7693;SDS011;3889;48.162;11.510;2022-12-17T14:58:07;44.95;;;40.10;;
7693;SDS011;3889;48.162;11.510;2022-12-17T15:00:43;45.03;;;39.88;;
7693;SDS011;3889;48.162;11.510;2022-12-17T15:03:16;46.22;;;41.20;;
7693;SDS011;3889;48.162;11.510;2022-12-17T15:05:46;45.60;;;40.60;;
7693;SDS011;3889;48.162;11.510;2022-12-17T15:08:19;46.22;;;40.45;;
7693;SDS011;3889;48.162;11.510;2022-12-17T15:10:48;45.70;;;40.90;;
7693;SDS011;3889;48.162;11.510;2022-12-17T15:13:16;46.28;;;41.28;;
7693;SDS011;3889;48.162;11.510;2022-12-17T15:15:43;46.53;;;41.53;;
7693;SDS011;3889;48.162;11.510;2022-12-17T15:18:12;47.95;;;42.45;;
7693;SDS011;3889;48.162;11.510;2022-12-17T15:20:39;47.80;;;42.70;;
7693;SDS011;3889;48.162;11.510;2022-12-17T15:23:09;46.22;;;41.15;;
7693;SDS011;3889;48.162;11.510;2022-12-17T15:25:43;46.17;;;41.17;;
7693;SDS011;3889;48.162;11.510;2022-12-17T15:28:12;45.65;;;40.85;;
7693;SDS011;3889;48.162;11.510;2022-12-17T15:30:41;47.63;;;42.53;;
7693;SDS011;3889;48.162;11.510;2022-12-17T15:33:09;45.80;;;40.90;;
7693;SDS011;3889;48.162;11.510;2022-12-17T15:35:37;46.97;;;41.90;;
7693;SDS011;3889;48.162;11.510;2022-12-17T15:38:05;47.17;;;41.83;;
7693;SDS011;3889;48.162;11.510;2022-12-17T15:40:34;47.88;;;42.70;;
7693;SDS011;3889;48.162;11.510;2022-12-17T15:43:04;47.83;;;42.63;;
7693;SDS011;3889;48.162;11.510;2022-12-17T15:45:38;50.58;;;45.17;;
7693;SDS011;3889;48.162;11.510;2022-12-17T15:48:07;50.70;;;45.30;;
7693;SDS011;3889;48.162;11.510;2022-12-17T15:50:35;51.03;;;44.40;;
7693;SDS011;3889;48.162;11.510;2022-12-17T15:53:03;49.30;;;43.88;;
7693;SDS011;3889;48.162;11.510;2022-12-17T15:55:31;52.15;;;46.45;;
7693;SDS011;3889;48.162;11.510;2022-12-17T15:57:59;49.83;;;44.58;;
7693;SDS011;3889;48.162;11.510;2022-12-17T16:00:29;52.15;;;46.08;;
7693;SDS011;3889;48.162;11.510;2022-12-17T16:02:56;52.25;;;46.20;;
7693;SDS011;3889;48.162;11.510;2022-12-17T16:05:25;53.40;;;47.53;;
7693;SDS011;3889;48.162;11.510;2022-12-17T16:07:53;59.50;;;51.43;;
7693;SDS011;3889;48.162;11.510;2022-12-17T16:10:24;55.20;;;48.72;;
7693;SDS011;3889;48.162;11.510;2022-12-17T16:12:52;56.45;;;49.97;;
7693;SDS011;3889;48.162;11.510;2022-12-17T16:15:19;56.65;;;50.45;;
7693;SDS011;3889;48.162;11.510;2022-12-17T16:17:48;50.75;;;45.20;;
7693;SDS011;3889;48.162;11.510;2022-12-17T16:20:18;52.72;;;47.08;;